Time;durP1;ratioP1;P1;durP2;ratioP2;P2;SDS_P1;SDS_P2;PMS_P1;PMS_P2;Temp;Humidity;BMP_temperature;BMP_pressure;BME280_temperature;BME280_humidity;BME280_pressure;Samples;Min_cycle;Max_cycle;Signal;HPM_P1;HPM_P2
2022/04/04 00:00:42;;;;;;;27.77;6.45;;;;;;;8.10;57.78;101055.31;5040801;28;20095;-59
2022/04/04 00:03:15;;;;;;;29.85;7.10;;;;;;;8.09;57.66;101040.56;5040687;28;20124;-60
2022/04/04 00:05:47;;;;;;;25.67;7.25;;;;;;;8.20;57.36;101041.50;5040795;28;20319;-59
2022/04/04 00:08:18;;;;;;;23.85;6.32;;;;;;;8.23;57.27;101052.78;5040922;28;20049;-59
2022/04/04 00:10:48;;;;;;;23.08;5.90;;;;;;;8.29;56.91;101053.72;5040565;28;20302;-59
2022/04/04 00:13:19;;;;;;;27.35;7.10;;;;;;;8.34;57.09;101051.13;5040619;28;20091;-59
2022/04/04 00:15:50;;;;;;;24.35;7.03;;;;;;;8.36;57.00;101049.38;5037621;28;20100;-59
2022/04/04 00:18:23;;;;;;;29.13;6.93;;;;;;;8.33;56.72;101054.59;5012598;28;20049;-59
2022/04/04 00:20:53;;;;;;;29.13;7.28;;;;;;;8.36;56.66;101062.41;5001482;28;20046;-58
2022/04/04 00:23:24;;;;;;;29.08;7.97;;;;;;;8.51;56.40;101066.84;5001076;28;20085;-57
2022/04/04 00:25:55;;;;;;;27.08;6.70;;;;;;;8.55;56.38;101046.03;5000945;28;20060;-59
2022/04/04 00:28:25;;;;;;;26.13;6.43;;;;;;;8.71;55.78;101056.53;5001342;28;20054;-58
2022/04/04 00:30:56;;;;;;;24.55;7.53;;;;;;;8.82;55.66;101060.06;5000570;28;20065;-58
2022/04/04 00:33:28;;;;;;;25.95;6.80;;;;;;;8.79;55.67;101060.06;5001075;28;20054;-58
2022/04/04 00:35:59;;;;;;;35.15;7.80;;;;;;;8.79;55.83;101060.06;5011197;28;20108;-58
2022/04/04 00:38:30;;;;;;;27.65;6.60;;;;;;;8.80;55.90;101056.56;5019566;28;20054;-58
2022/04/04 00:41:00;;;;;;;32.55;7.28;;;;;;;8.96;55.33;101055.75;5019204;28;20277;-58
2022/04/04 00:43:31;;;;;;;29.58;6.63;;;;;;;8.96;55.31;101037.53;5016596;28;20054;-58
2022/04/04 00:46:02;;;;;;;30.30;6.95;;;;;;;8.98;55.23;101046.19;5019007;28;20172;-58
2022/04/04 00:48:35;;;;;;;23.83;6.13;;;;;;;8.73;55.12;100992.25;5019206;28;20053;-58
2022/04/04 00:51:06;;;;;;;23.75;6.97;;;;;;;9.26;54.74;101041.03;5019281;28;20085;-58
2022/04/04 00:53:36;;;;;;;28.50;6.47;;;;;;;9.39;54.13;101055.84;5019009;28;20084;-58
2022/04/04 00:56:09;;;;;;;24.33;6.22;;;;;;;9.41;54.21;101056.72;5016908;28;20113;-59
2022/04/04 00:58:40;;;;;;;30.17;6.68;;;;;;;9.33;53.97;101037.56;5019105;28;20050;-60
2022/04/04 01:01:10;;;;;;;21.92;6.55;;;;;;;9.26;53.89;101046.25;5018892;28;20077;-57
2022/04/04 01:03:43;;;;;;;28.25;6.93;;;;;;;9.33;53.94;101042.78;5018808;28;20383;-57
2022/04/04 01:06:16;;;;;;;32.60;8.15;;;;;;;9.46;54.01;101038.44;5018994;28;20052;-57
2022/04/04 01:08:46;;;;;;;31.63;7.65;;;;;;;9.41;53.70;101046.28;5016446;28;20060;-57
2022/04/04 01:11:17;;;;;;;19.42;6.38;;;;;;;9.28;54.06;101040.19;5018464;28;20045;-55
2022/04/04 01:13:48;;;;;;;27.35;7.05;;;;;;;9.13;54.24;101016.69;5016552;28;20073;-57
2022/04/04 01:16:20;;;;;;;29.20;7.35;;;;;;;9.25;54.25;101039.31;5018805;28;20046;-57
2022/04/04 01:18:52;;;;;;;30.35;6.82;;;;;;;9.30;54.15;101037.56;5018461;28;20057;-62
2022/04/04 01:21:23;;;;;;;25.83;6.78;;;;;;;9.32;53.64;101034.97;5015892;28;20110;-57
2022/04/04 01:23:57;;;;;;;34.35;6.80;;;;;;;9.35;53.62;101030.63;5018887;28;20046;-55
2022/04/04 01:26:29;;;;;;;30.77;7.35;;;;;;;9.43;53.05;101022.78;5016789;28;20109;-58
2022/04/04 01:29:00;;;;;;;29.40;6.20;;;;;;;9.47;52.86;101020.19;5018566;28;20112;-56
2022/04/04 01:31:30;;;;;;;24.55;6.40;;;;;;;9.64;52.75;101021.94;5018306;28;20045;-56
2022/04/04 01:34:02;;;;;;;26.05;6.95;;;;;;;9.46;52.03;100970.63;5018500;28;20050;-57
2022/04/04 01:36:33;;;;;;;23.15;6.57;;;;;;;9.47;52.21;100978.44;5016410;28;20077;-55
2022/04/04 01:39:05;;;;;;;23.95;6.55;;;;;;;9.62;52.27;101008.88;5015741;28;20073;-58
2022/04/04 01:41:37;;;;;;;28.77;6.32;;;;;;;9.59;52.28;100995.00;5018368;28;20049;-57
2022/04/04 01:44:09;;;;;;;31.58;7.55;;;;;;;9.55;52.34;101016.72;5017665;28;20143;-57
2022/04/04 01:46:40;;;;;;;23.70;6.13;;;;;;;9.34;52.56;100966.28;5024948;28;20062;-57
2022/04/04 01:49:11;;;;;;;29.13;6.65;;;;;;;9.59;52.55;101003.69;5024400;28;20061;-56
2022/04/04 01:51:42;;;;;;;29.33;6.90;;;;;;;8.99;52.83;100917.63;5024902;28;20061;-56
2022/04/04 01:54:13;;;;;;;30.20;6.72;;;;;;;9.31;52.92;100981.94;5025123;28;20053;-57
2022/04/04 01:56:45;;;;;;;30.15;6.85;;;;;;;9.45;53.31;100995.84;5025220;28;20061;-54
2022/04/04 01:59:16;;;;;;;27.38;7.32;;;;;;;9.48;53.18;100990.66;5025397;28;20092;-57
2022/04/04 02:01:46;;;;;;;22.50;6.25;;;;;;;9.48;53.30;100985.44;5025249;28;20080;-53
2022/04/04 02:04:17;;;;;;;24.88;6.90;;;;;;;9.47;53.40;100994.09;5025141;28;20057;-54
2022/04/04 02:06:48;;;;;;;31.83;7.47;;;;;;;9.44;53.64;100973.25;5024975;28;20058;-54
2022/04/04 02:09:19;;;;;;;18.23;6.60;;;;;;;9.13;53.59;100935.00;5024901;28;20226;-56
2022/04/04 02:11:51;;;;;;;22.67;6.50;;;;;;;9.33;53.78;100985.41;5024816;28;20042;-55
2022/04/04 02:14:21;;;;;;;24.88;6.43;;;;;;;9.35;53.73;100983.66;5024824;28;20186;-55
2022/04/04 02:16:52;;;;;;;22.13;6.43;;;;;;;9.38;53.50;100983.66;5024733;28;20065;-54
2022/04/04 02:19:23;;;;;;;24.05;6.22;;;;;;;9.34;53.60;100984.56;5024776;28;20237;-55
2022/04/04 02:21:53;;;;;;;22.05;6.35;;;;;;;9.35;53.83;100978.44;5025061;28;20279;-56
2022/04/04 02:24:24;;;;;;;25.00;6.97;;;;;;;9.34;53.94;100981.94;5024920;28;20628;-56
2022/04/04 02:26:56;;;;;;;17.58;6.25;;;;;;;9.31;54.29;100979.34;5025093;28;20053;-56
2022/04/04 02:29:27;;;;;;;24.40;6.53;;;;;;;9.32;54.24;100972.38;5024932;28;20065;-56
2022/04/04 02:31:58;;;;;;;25.00;6.95;;;;;;;9.26;53.91;100973.22;5024567;28;20057;-55
2022/04/04 02:34:29;;;;;;;23.08;6.68;;;;;;;9.30;54.25;100974.97;5024841;28;20061;-58
2022/04/04 02:36:59;;;;;;;24.00;6.38;;;;;;;9.31;53.68;100961.09;5024472;28;20100;-56
2022/04/04 02:39:30;;;;;;;24.33;6.55;;;;;;;9.31;53.87;100976.72;5024297;28;20042;-55
2022/04/04 02:42:02;;;;;;;24.42;6.97;;;;;;;9.26;54.20;100968.91;5024438;28;20044;-56
2022/04/04 02:44:33;;;;;;;26.05;6.40;;;;;;;9.29;54.68;100978.47;5024753;28;20081;-55
2022/04/04 02:47:04;;;;;;;28.80;6.65;;;;;;;9.16;54.56;100961.94;5023993;28;20124;-54
2022/04/04 02:49:35;;;;;;;23.77;7.15;;;;;;;9.22;54.63;100981.94;5024117;28;20117;-57
2022/04/04 02:52:06;;;;;;;26.95;6.88;;;;;;;9.25;54.35;100974.09;5024241;28;20052;-55
2022/04/04 02:54:37;;;;;;;26.83;7.05;;;;;;;9.22;54.56;100966.28;5024170;28;20049;-57
2022/04/04 02:57:08;;;;;;;23.27;6.63;;;;;;;9.16;54.62;100953.22;5024110;28;20328;-55
2022/04/04 02:59:39;;;;;;;28.40;6.57;;;;;;;9.19;54.79;100968.91;5024053;28;20041;-57
2022/04/04 03:02:09;;;;;;;23.45;6.43;;;;;;;9.18;54.79;100964.53;5024201;28;20049;-56
2022/04/04 03:04:42;;;;;;;26.25;7.05;;;;;;;9.22;54.48;100961.06;5024112;28;20061;-56
2022/04/04 03:07:12;;;;;;;24.15;6.72;;;;;;;9.23;54.04;100958.44;5024233;28;20263;-57
2022/04/04 03:09:43;;;;;;;27.20;7.20;;;;;;;9.20;54.12;100952.38;5024282;28;20125;-54
2022/04/04 03:12:15;;;;;;;26.45;6.30;;;;;;;9.07;53.95;100941.94;5024186;28;20056;-56
2022/04/04 03:14:46;;;;;;;22.17;5.82;;;;;;;9.24;54.20;100964.56;5024034;28;20092;-56
2022/04/04 03:17:17;;;;;;;20.38;6.60;;;;;;;9.16;53.71;100955.84;5023903;28;20057;-54
2022/04/04 03:19:48;;;;;;;27.45;7.40;;;;;;;9.22;54.00;100950.66;5023908;28;20046;-55
2022/04/04 03:22:18;;;;;;;25.63;6.97;;;;;;;9.24;54.06;100956.72;5023796;28;20073;-53
2022/04/04 03:24:49;;;;;;;28.85;8.30;;;;;;;9.28;54.05;100961.06;5023808;28;20088;-54
2022/04/04 03:27:21;;;;;;;21.85;6.57;;;;;;;9.36;53.93;100953.22;5023970;28;20053;-54
2022/04/04 03:29:54;;;;;;;20.88;6.07;;;;;;;9.33;53.65;100963.69;5023926;28;20308;-54
2022/04/04 03:32:25;;;;;;;34.65;7.25;;;;;;;9.31;53.71;100966.31;5023772;28;20064;-54
2022/04/04 03:34:56;;;;;;;24.52;6.70;;;;;;;9.41;53.50;100968.03;5023780;28;20050;-57
2022/04/04 03:37:26;;;;;;;23.65;6.13;;;;;;;9.41;53.72;100977.56;5023972;28;20064;-57
2022/04/04 03:39:57;;;;;;;21.13;6.45;;;;;;;9.39;53.69;100974.13;5023994;28;20065;-55
2022/04/04 03:42:29;;;;;;;21.65;5.88;;;;;;;9.43;53.64;100976.69;5023861;28;20125;-56
2022/04/04 03:45:00;;;;;;;21.95;5.78;;;;;;;9.52;53.49;100975.00;5023930;28;20214;-55
2022/04/04 03:47:31;;;;;;;28.90;6.97;;;;;;;9.54;53.47;100979.34;5023690;28;20061;-56
2022/04/04 03:50:02;;;;;;;29.15;6.47;;;;;;;9.61;53.23;100980.16;5023630;28;20053;-55
2022/04/04 03:52:34;;;;;;;29.85;7.78;;;;;;;9.66;53.24;100965.38;5014005;28;20061;-54
2022/04/04 03:55:06;;;;;;;21.38;6.40;;;;;;;9.75;52.80;100970.59;5024060;28;20105;-56
2022/04/04 03:57:38;;;;;;;28.33;6.63;;;;;;;9.72;52.74;100968.00;5023973;28;20084;-54
2022/04/04 04:00:11;;;;;;;23.95;7.10;;;;;;;9.80;52.46;100968.84;5023536;28;20068;-55
2022/04/04 04:02:41;;;;;;;31.42;6.65;;;;;;;9.78;52.45;100962.75;5023711;28;20049;-53
2022/04/04 04:05:14;;;;;;;21.90;6.45;;;;;;;9.80;52.28;100955.78;5023548;28;20061;-56
2022/04/04 04:07:45;;;;;;;16.08;6.47;;;;;;;9.63;52.04;100926.25;5027240;28;20046;-55
2022/04/04 04:10:16;;;;;;;21.52;5.72;;;;;;;9.85;52.34;100963.63;5027378;28;20049;-54
2022/04/04 04:12:49;;;;;;;23.77;6.40;;;;;;;9.89;51.84;100967.97;5017223;28;20124;-56
2022/04/04 04:15:21;;;;;;;19.70;6.13;;;;;;;9.61;51.66;100913.22;5027085;28;20163;-54
2022/04/04 04:17:53;;;;;;;22.17;6.97;;;;;;;9.83;51.47;100945.34;5027180;28;20235;-54
2022/04/04 04:20:31;;;;;;;24.08;5.80;;;;;;;9.84;51.64;100957.53;5026884;28;20054;-55
2022/04/04 04:23:04;;;;;;;23.95;7.13;;;;;;;9.69;51.70;100936.69;5027209;28;20453;-56
2022/04/04 04:25:36;;;;;;;22.35;6.15;;;;;;;9.73;51.76;100948.84;5026748;28;20417;-55
2022/04/04 04:28:09;;;;;;;25.63;6.38;;;;;;;9.40;51.35;100892.38;5026757;28;20116;-56
2022/04/04 04:30:41;;;;;;;21.67;6.38;;;;;;;9.82;51.36;100946.22;5026264;28;20054;-55
2022/04/04 04:33:11;;;;;;;24.23;5.93;;;;;;;9.92;50.65;100945.31;5026564;28;20061;-56
2022/04/04 04:35:42;;;;;;;19.27;6.50;;;;;;;9.84;50.51;100936.66;5026631;28;20132;-56
2022/04/04 04:38:13;;;;;;;21.92;6.43;;;;;;;9.86;50.55;100949.69;5026906;28;20057;-53
2022/04/04 04:40:43;;;;;;;24.80;6.82;;;;;;;9.84;50.96;100936.66;5026730;28;20049;-54
2022/04/04 04:43:16;;;;;;;21.33;5.90;;;;;;;9.88;50.40;100932.28;5026503;28;20049;-57
2022/04/04 04:45:47;;;;;;;17.67;5.78;;;;;;;9.83;50.00;100940.13;5026602;28;20100;-54
2022/04/04 04:48:18;;;;;;;27.58;6.53;;;;;;;9.49;49.88;100877.59;5016634;28;20336;-54
2022/04/04 04:50:49;;;;;;;20.95;6.38;;;;;;;9.74;50.10;100919.28;5026242;28;20049;-53
2022/04/04 04:53:20;;;;;;;21.20;5.28;;;;;;;9.78;50.10;100925.34;5026161;28;20080;-54
2022/04/04 04:55:52;;;;;;;21.80;5.88;;;;;;;9.81;50.13;100931.44;5026377;28;20120;-51
2022/04/04 04:58:24;;;;;;;22.10;5.93;;;;;;;9.84;50.10;100931.44;5026358;28;20145;-53
2022/04/04 05:00:55;;;;;;;20.95;5.82;;;;;;;9.78;50.25;100915.78;5026630;28;20049;-52
2022/04/04 05:03:26;;;;;;;18.23;5.65;;;;;;;9.75;49.73;100930.59;5026064;28;20064;-55
2022/04/04 05:05:57;;;;;;;22.67;5.78;;;;;;;9.63;50.16;100915.81;5026082;28;20104;-53
2022/04/04 05:08:27;;;;;;;29.88;7.45;;;;;;;9.68;50.40;100924.50;5016516;28;20060;-53
2022/04/04 05:10:59;;;;;;;21.98;6.05;;;;;;;9.77;49.99;100911.44;5026071;28;20055;-55
2022/04/04 05:13:32;;;;;;;19.48;6.07;;;;;;;9.79;49.60;100912.31;5025639;28;20047;-52
2022/04/04 05:16:04;;;;;;;18.17;6.03;;;;;;;9.73;49.83;100907.09;5025666;28;20359;-52
2022/04/04 05:18:35;;;;;;;19.10;5.80;;;;;;;9.77;50.04;100915.78;5024365;28;20091;-56
2022/04/04 05:21:06;;;;;;;29.90;6.32;;;;;;;9.81;49.71;100905.34;5025823;28;20072;-52
2022/04/04 05:23:36;;;;;;;20.98;5.43;;;;;;;9.65;49.35;100882.75;5025985;28;20053;-52
2022/04/04 05:26:12;;;;;;;21.52;6.22;;;;;;;9.77;49.74;100908.81;5025717;28;20092;-51
2022/04/04 05:28:44;;;;;;;21.45;5.90;;;;;;;9.70;49.76;100897.53;5025703;28;20207;-51
2022/04/04 05:31:15;;;;;;;19.27;5.80;;;;;;;9.67;49.61;100891.47;5025530;28;20053;-52
2022/04/04 05:33:46;;;;;;;18.40;5.50;;;;;;;9.59;49.95;100880.19;5025093;28;20116;-53
2022/04/04 05:36:17;;;;;;;18.52;5.93;;;;;;;9.60;50.20;100892.34;5025309;28;20077;-55
2022/04/04 05:38:50;;;;;;;20.27;5.72;;;;;;;9.39;50.53;100870.66;5024842;28;20088;-55
2022/04/04 05:41:21;;;;;;;25.73;6.10;;;;;;;9.46;50.62;100877.59;5025466;28;20053;-53
2022/04/04 05:43:56;;;;;;;22.10;6.47;;;;;;;9.47;50.35;100878.47;5025298;28;20060;-56
2022/04/04 05:46:27;;;;;;;23.83;6.35;;;;;;;9.43;50.57;100884.53;5025490;28;20045;-53
2022/04/04 05:48:58;;;;;;;16.05;5.63;;;;;;;9.38;50.59;100889.75;5025345;28;20204;-53
2022/04/04 05:51:29;;;;;;;19.25;5.63;;;;;;;9.03;50.59;100824.63;5025495;28;20057;-53
2022/04/04 05:54:19;;;;;;;29.23;7.18;;;;;;;9.37;50.24;100882.81;5024990;28;20236;-54
2022/04/04 05:56:50;;;;;;;18.92;5.18;;;;;;;9.32;50.86;100879.34;5023819;28;20061;-57
2022/04/04 05:59:27;;;;;;;26.00;6.03;;;;;;;9.28;50.68;100888.94;5024668;28;20057;-56
2022/04/04 06:01:58;;;;;;;23.63;5.53;;;;;;;9.20;51.01;100874.16;5024235;28;20127;-53
2022/04/04 06:04:28;;;;;;;18.95;5.55;;;;;;;9.25;51.08;100888.06;5025312;28;20085;-57
2022/04/04 06:06:59;;;;;;;21.88;6.13;;;;;;;9.31;51.10;100881.94;5024723;28;20049;-54
2022/04/04 06:09:30;;;;;;;19.38;5.55;;;;;;;9.20;51.30;100879.38;5025065;28;20046;-54
2022/04/04 06:12:00;;;;;;;17.35;5.72;;;;;;;9.22;51.04;100872.41;5023918;28;20062;-55
2022/04/04 06:14:33;;;;;;;18.10;5.47;;;;;;;9.17;51.36;100868.94;5024760;28;20068;-55
2022/04/04 06:17:05;;;;;;;17.80;5.75;;;;;;;9.03;51.34;100859.38;5025115;28;20210;-54
2022/04/04 06:19:36;;;;;;;19.58;5.70;;;;;;;9.11;51.47;100862.00;5024792;28;20089;-55
2022/04/04 06:22:07;;;;;;;18.30;5.57;;;;;;;9.00;51.73;100863.75;5025075;28;20047;-53
2022/04/04 06:24:38;;;;;;;22.05;5.65;;;;;;;9.11;51.46;100874.16;5024517;28;20124;-55
2022/04/04 06:27:09;;;;;;;22.88;6.18;;;;;;;9.12;51.60;100870.69;5024599;28;20050;-55
2022/04/04 06:29:41;;;;;;;18.23;5.68;;;;;;;9.13;51.30;100867.19;5024482;28;20057;-56
2022/04/04 06:32:12;;;;;;;20.58;5.80;;;;;;;9.00;51.75;100862.00;5024307;28;20061;-56
2022/04/04 06:34:43;;;;;;;18.42;6.13;;;;;;;8.67;52.09;100825.53;5023956;28;20164;-56
2022/04/04 06:37:14;;;;;;;23.70;5.85;;;;;;;8.92;51.90;100874.16;5024399;28;20095;-56
2022/04/04 06:39:45;;;;;;;25.45;6.68;;;;;;;8.78;51.87;100844.63;5024019;28;20069;-55
2022/04/04 06:42:16;;;;;;;24.25;6.20;;;;;;;8.95;52.02;100868.09;5022584;28;20076;-56
2022/04/04 06:44:48;;;;;;;20.85;5.70;;;;;;;8.90;52.10;100870.69;5022619;28;20045;-55
2022/04/04 06:47:21;;;;;;;23.13;5.15;;;;;;;8.79;52.19;100872.44;5024628;28;20056;-55
2022/04/04 06:49:52;;;;;;;21.38;5.60;;;;;;;8.70;52.60;100862.84;5024441;28;20094;-53
2022/04/04 06:52:23;;;;;;;19.67;6.38;;;;;;;8.63;52.60;100872.38;5024320;28;20093;-55
2022/04/04 06:54:55;;;;;;;22.60;6.55;;;;;;;8.52;52.58;100847.22;5024094;28;20347;-56
2022/04/04 06:57:26;;;;;;;16.80;5.32;;;;;;;8.57;52.44;100859.38;5024211;28;20052;-54
2022/04/04 07:00:04;;;;;;;22.70;5.63;;;;;;;8.55;52.27;100853.28;5024607;28;20371;-57
2022/04/04 07:02:36;;;;;;;16.70;5.70;;;;;;;8.51;52.19;100856.78;5024038;28;20124;-54
2022/04/04 07:05:08;;;;;;;20.48;5.30;;;;;;;8.48;52.94;100854.13;5023985;28;20060;-58
2022/04/04 07:07:38;;;;;;;16.45;5.18;;;;;;;8.42;53.43;100852.41;5023784;28;20349;-55
2022/04/04 07:10:11;;;;;;;25.33;7.15;;;;;;;8.40;53.44;100858.47;5023473;28;20053;-56
2022/04/04 07:12:44;;;;;;;21.48;6.30;;;;;;;8.33;53.83;100851.47;5024692;28;20053;-54
2022/04/04 07:15:17;;;;;;;17.60;5.75;;;;;;;8.22;54.39;100854.06;5023848;28;20041;-55
2022/04/04 07:17:48;;;;;;;26.70;7.28;;;;;;;8.08;54.34;100848.81;5024265;28;20100;-52
2022/04/04 07:20:19;;;;;;;19.63;5.22;;;;;;;7.99;54.57;100846.19;5024065;28;20085;-57
2022/04/04 07:22:50;;;;;;;22.73;6.68;;;;;;;8.01;54.91;100862.66;5024187;28;20324;-55
2022/04/04 07:25:21;;;;;;;23.65;5.93;;;;;;;7.75;55.09;100806.19;5023807;28;20332;-53
2022/04/04 07:27:52;;;;;;;18.20;5.80;;;;;;;8.00;54.86;100850.53;5024106;28;20132;-55
2022/04/04 07:30:26;;;;;;;19.02;5.10;;;;;;;7.85;55.26;100837.47;5023814;28;20058;-55
2022/04/04 07:32:57;;;;;;;20.30;5.50;;;;;;;7.82;55.26;100837.44;5022466;28;20089;-52
2022/04/04 07:35:28;;;;;;;20.17;6.10;;;;;;;7.71;55.41;100845.19;5023623;28;20058;-56
2022/04/04 07:37:59;;;;;;;34.30;6.43;;;;;;;7.65;55.61;100840.84;5023488;28;20451;-54
2022/04/04 07:40:30;;;;;;;19.10;5.78;;;;;;;7.62;55.81;100840.81;5024054;28;20068;-56
2022/04/04 07:43:01;;;;;;;22.67;6.57;;;;;;;6.82;56.55;100726.00;5027875;28;20049;-54
2022/04/04 07:45:33;;;;;;;21.98;5.70;;;;;;;7.46;56.51;100839.88;5027600;28;20113;-54
2022/04/04 07:48:10;;;;;;;22.40;5.68;;;;;;;7.30;56.70;100812.03;5027584;28;20057;-57
2022/04/04 07:50:44;;;;;;;20.77;6.53;;;;;;;7.26;57.09;100815.47;5027796;28;20057;-54
2022/04/04 07:53:15;;;;;;;18.60;6.00;;;;;;;7.26;57.02;100820.69;5027571;28;20340;-57
2022/04/04 07:55:46;;;;;;;28.10;7.47;;;;;;;7.15;57.32;100823.22;5027424;28;20061;-55
2022/04/04 07:58:18;;;;;;;24.00;7.18;;;;;;;6.75;57.85;100765.78;5027582;28;20050;-56
2022/04/04 08:00:52;;;;;;;22.63;6.53;;;;;;;6.59;58.44;100763.91;5027120;28;20060;-52
2022/04/04 08:03:23;;;;;;;28.45;6.85;;;;;;;6.88;58.60;100829.94;5027283;28;20054;-57
2022/04/04 08:05:55;;;;;;;25.95;6.80;;;;;;;6.82;59.08;100819.53;5026698;28;20061;-54
2022/04/04 08:08:26;;;;;;;22.70;6.00;;;;;;;6.77;59.22;100826.41;5026962;28;20054;-53
2022/04/04 08:10:57;;;;;;;22.90;6.03;;;;;;;6.71;59.55;100821.16;5019931;28;20061;-55
2022/04/04 08:13:28;;;;;;;20.92;6.72;;;;;;;6.63;59.67;100822.81;5027194;28;20064;-56
2022/04/04 08:16:01;;;;;;;22.38;5.75;;;;;;;6.48;60.10;100798.44;5026927;28;20137;-54
2022/04/04 08:18:31;;;;;;;22.02;6.47;;;;;;;6.42;60.40;100798.41;5026759;28;20057;-57
2022/04/04 08:21:02;;;;;;;19.33;5.78;;;;;;;6.35;60.34;100786.22;5027079;28;20236;-54
2022/04/04 08:23:33;;;;;;;24.75;6.05;;;;;;;6.30;60.75;100787.91;5017047;28;20053;-54
2022/04/04 08:26:04;;;;;;;24.95;6.78;;;;;;;6.13;60.81;100776.50;5026915;28;20077;-54
2022/04/04 08:28:35;;;;;;;29.15;7.88;;;;;;;6.17;61.17;100796.44;5027066;28;20089;-56
2022/04/04 08:31:07;;;;;;;25.83;7.72;;;;;;;6.09;61.89;100803.25;5026619;28;20041;-55
2022/04/04 08:33:38;;;;;;;25.90;6.20;;;;;;;6.04;61.93;100806.69;5026970;28;20108;-54
2022/04/04 08:36:09;;;;;;;22.90;6.40;;;;;;;6.02;62.07;100792.81;5027065;28;20073;-54
2022/04/04 08:38:41;;;;;;;27.60;6.50;;;;;;;5.68;62.35;100756.97;5027212;28;20061;-52
2022/04/04 08:41:12;;;;;;;20.02;5.82;;;;;;;5.78;62.81;100798.56;5025638;28;20252;-53
2022/04/04 08:43:44;;;;;;;22.95;6.32;;;;;;;5.74;62.83;100816.66;5025704;28;20061;-57
2022/04/04 08:46:17;;;;;;;28.58;6.95;;;;;;;5.69;62.84;100802.78;5017173;28;20050;-55
2022/04/04 08:48:48;;;;;;;20.73;5.95;;;;;;;5.62;63.00;100781.97;5025950;28;20049;-53
2022/04/04 08:51:19;;;;;;;27.15;6.65;;;;;;;5.58;63.37;100790.53;5026480;28;20408;-54
2022/04/04 08:53:50;;;;;;;21.77;6.45;;;;;;;5.48;63.66;100793.88;5026480;28;20124;-56
2022/04/04 08:56:24;;;;;;;26.02;8.43;;;;;;;5.25;63.76;100764.22;5026237;28;20233;-56
2022/04/04 08:58:56;;;;;;;40.13;7.20;;;;;;;5.37;64.11;100785.97;5026463;28;20411;-57
2022/04/04 09:01:29;;;;;;;23.23;7.43;;;;;;;5.35;64.44;100786.81;5025918;28;20042;-52
2022/04/04 09:04:18;;;;;;;24.13;6.03;;;;;;;5.25;64.66;100770.25;5026252;28;20099;-55
2022/04/04 09:06:50;;;;;;;18.83;6.40;;;;;;;5.25;65.13;100774.56;5025616;28;20080;-54
2022/04/04 09:09:22;;;;;;;19.58;6.25;;;;;;;5.16;65.35;100771.00;5026036;28;20084;-54
2022/04/04 09:12:07;;;;;;;22.77;6.55;;;;;;;5.05;65.42;100762.22;5024766;28;20066;-56
2022/04/04 09:14:40;;;;;;;23.50;6.28;;;;;;;4.94;65.96;100758.59;5025857;28;20042;-54
2022/04/04 09:17:13;;;;;;;24.20;6.65;;;;;;;4.96;66.10;100782.78;5025731;28;20362;-52
2022/04/04 09:19:44;;;;;;;23.20;6.90;;;;;;;4.90;66.33;100778.41;5026120;28;20072;-52
2022/04/04 09:22:15;;;;;;;26.50;6.35;;;;;;;4.90;66.55;100773.22;5025716;28;20058;-53
2022/04/04 09:24:51;;;;;;;24.65;7.30;;;;;;;4.79;66.57;100779.06;5025602;28;20837;-50
2022/04/04 09:27:24;;;;;;;27.85;7.95;;;;;;;4.83;66.44;100781.75;5025895;28;20077;-54
2022/04/04 09:29:56;;;;;;;23.50;7.18;;;;;;;4.48;66.46;100737.19;5025883;28;20053;-54
2022/04/04 09:32:39;;;;;;;28.02;8.93;;;;;;;4.82;66.86;100799.81;5025447;28;20112;-51
2022/04/04 09:35:13;;;;;;;33.20;11.40;;;;;;;4.24;66.51;100712.69;5025822;28;20058;-54
2022/04/04 09:37:44;;;;;;;34.35;9.35;;;;;;;4.76;66.67;100800.59;5025442;28;20061;-56
2022/04/04 09:40:17;;;;;;;27.45;7.78;;;;;;;4.73;67.34;100806.63;5024523;28;20092;-54
2022/04/04 09:43:01;;;;;;;26.27;7.45;;;;;;;4.70;67.48;100811.75;5024725;28;20060;-54
2022/04/04 09:45:32;;;;;;;21.70;6.28;;;;;;;4.69;67.26;100811.72;5025667;28;20067;-52
2022/04/04 09:48:08;;;;;;;25.15;6.72;;;;;;;4.46;67.66;100782.88;5025251;28;20064;-52
2022/04/04 09:50:44;;;;;;;30.02;7.38;;;;;;;4.64;67.37;100810.75;5024690;28;20156;-55
2022/04/04 09:53:19;;;;;;;21.77;6.15;;;;;;;4.58;67.74;100806.38;5025317;28;20042;-54
2022/04/04 09:55:52;;;;;;;27.20;7.95;;;;;;;4.09;67.48;100722.72;5025088;28;20045;-52
2022/04/04 09:58:24;;;;;;;28.15;6.95;;;;;;;4.58;67.63;100811.53;5025237;28;20057;-53
2022/04/04 10:00:58;;;;;;;22.85;7.65;;;;;;;4.61;67.52;100819.34;5024928;28;20152;-55
2022/04/04 10:03:33;;;;;;;24.75;6.57;;;;;;;4.09;67.59;100727.91;5023862;28;20058;-53
2022/04/04 10:06:07;;;;;;;28.73;6.78;;;;;;;4.54;67.67;100822.69;5024514;28;20389;-53
2022/04/04 10:08:40;;;;;;;25.38;7.72;;;;;;;4.54;68.26;100821.00;5024627;28;20108;-58
2022/04/04 10:11:11;;;;;;;24.83;7.15;;;;;;;4.40;67.94;100800.88;5024388;28;20042;-55
2022/04/04 10:13:42;;;;;;;28.52;7.78;;;;;;;4.46;68.06;100825.13;5025032;28;20092;-54
2022/04/04 10:16:13;;;;;;;26.90;7.13;;;;;;;4.40;68.32;100816.41;5024241;28;20240;-56
2022/04/04 10:18:47;;;;;;;32.05;8.35;;;;;;;4.40;68.37;100800.88;5024813;28;20060;-54
2022/04/04 10:21:18;;;;;;;24.90;8.05;;;;;;;4.37;68.59;100806.00;5024988;28;20058;-54
2022/04/04 10:23:52;;;;;;;26.60;7.60;;;;;;;4.33;68.56;100800.75;5024766;28;20060;-54
2022/04/04 10:26:27;;;;;;;27.90;7.03;;;;;;;4.32;68.64;100809.38;5025131;28;20058;-56
2022/04/04 10:29:12;;;;;;;20.58;6.40;;;;;;;4.32;68.59;100803.34;5024933;28;20329;-55
2022/04/04 10:31:47;;;;;;;27.05;6.47;;;;;;;4.26;68.71;100801.50;5024474;28;20112;-53
2022/04/04 10:34:21;;;;;;;26.92;6.78;;;;;;;3.98;68.76;100750.13;5024846;28;20077;-57
2022/04/04 10:37:01;;;;;;;28.30;7.35;;;;;;;4.26;68.61;100814.44;5024512;28;20105;-53
2022/04/04 10:39:44;;;;;;;21.08;6.20;;;;;;;4.25;68.97;100823.06;5020818;28;20437;-53
2022/04/04 10:42:33;;;;;;;26.00;6.88;;;;;;;4.18;68.64;100821.19;5022990;28;20054;-55
2022/04/04 10:45:09;;;;;;;29.80;8.02;;;;;;;4.25;68.67;100837.72;5022873;28;20244;-55
2022/04/04 10:47:42;;;;;;;23.88;7.03;;;;;;;4.23;68.53;100816.09;5023258;28;20089;-55
2022/04/04 10:50:22;;;;;;;24.23;7.35;;;;;;;4.32;68.38;100835.25;5022957;28;20125;-53
2022/04/04 10:52:54;;;;;;;20.48;6.88;;;;;;;4.23;68.21;100824.72;5023738;28;20041;-52
2022/04/04 10:55:56;;;;;;;29.02;7.43;;;;;;;4.29;68.63;100840.38;5023543;28;20079;-54
2022/04/04 10:58:27;;;;;;;30.42;6.88;;;;;;;4.30;68.47;100847.28;5022217;28;20120;-56
2022/04/04 11:01:15;;;;;;;22.27;7.57;;;;;;;4.30;68.46;100860.22;5021930;28;20041;-54
2022/04/04 11:03:59;;;;;;;20.90;6.88;;;;;;;4.22;68.31;100848.88;5022874;28;20061;-55
2022/04/04 11:09:36;;;;;;;;;;;;;;;4.29;68.50;100839.47;5023353;28;20053;-53
2022/04/04 11:12:15;;;;;;;25.13;7.18;;;;;;;3.82;68.32;100785.16;5018038;28;20101;-53
2022/04/04 11:14:54;;;;;;;17.52;5.80;;;;;;;4.14;68.02;100840.06;5022884;28;20379;-54
2022/04/04 11:17:35;;;;;;;27.38;6.65;;;;;;;4.22;68.13;100854.03;5022419;28;20061;-53
2022/04/04 11:20:21;;;;;;;25.00;6.75;;;;;;;4.25;67.96;100861.84;5023265;28;20054;-54
2022/04/04 11:22:55;;;;;;;22.80;6.82;;;;;;;4.22;67.50;100858.31;5023044;28;20113;-57
2022/04/04 11:25:34;;;;;;;24.67;6.32;;;;;;;4.22;67.62;100869.56;5022850;28;20053;-54
2022/04/04 11:28:05;;;;;;;21.13;6.47;;;;;;;4.29;67.35;100866.25;5022938;28;20139;-54
2022/04/04 11:30:36;;;;;;;24.50;7.03;;;;;;;4.33;67.16;100868.03;5023077;28;20292;-54
2022/04/04 11:33:11;;;;;;;25.60;6.88;;;;;;;4.33;67.07;100862.84;5022649;28;20056;-54
2022/04/04 11:35:42;;;;;;;26.77;7.05;;;;;;;4.35;67.25;100859.44;5023582;28;20349;-54
2022/04/04 11:38:17;;;;;;;18.80;6.30;;;;;;;4.30;66.73;100847.28;5022919;28;20053;-54
2022/04/04 11:40:53;;;;;;;23.17;6.88;;;;;;;4.35;66.59;100849.09;5023059;28;20138;-56
2022/04/04 11:43:25;;;;;;;24.33;6.40;;;;;;;4.43;66.10;100863.91;5023107;28;20121;-56
2022/04/04 11:45:56;;;;;;;31.65;6.82;;;;;;;4.48;65.66;100861.41;5022716;28;20053;-56
2022/04/04 11:48:28;;;;;;;22.48;6.13;;;;;;;4.39;65.44;100837.94;5023063;28;20355;-56
2022/04/04 11:50:59;;;;;;;25.52;5.68;;;;;;;4.48;65.33;100866.56;5022901;28;20061;-55